sensor_id;sensor_type;location;lat;lon;timestamp;temperature;humidity
68867;SHT30;56451;44.804;20.476;2022-09-30T00:01:43;20.38;55.74
68867;SHT30;56451;44.804;20.476;2022-09-30T00:04:13;20.38;55.79
68867;SHT30;56451;44.804;20.476;2022-09-30T00:06:39;20.38;55.62
68867;SHT30;56451;44.804;20.476;2022-09-30T00:09:05;20.42;55.49
68867;SHT30;56451;44.804;20.476;2022-09-30T00:11:33;20.41;55.38
68867;SHT30;56451;44.804;20.476;2022-09-30T00:14:00;20.41;55.62
68867;SHT30;56451;44.804;20.476;2022-09-30T00:16:28;20.42;55.92
68867;SHT30;56451;44.804;20.476;2022-09-30T00:18:55;20.42;55.75
68867;SHT30;56451;44.804;20.476;2022-09-30T00:21:22;20.45;55.96
68867;SHT30;56451;44.804;20.476;2022-09-30T00:23:48;20.40;55.98
68867;SHT30;56451;44.804;20.476;2022-09-30T00:26:20;20.40;55.74
68867;SHT30;56451;44.804;20.476;2022-09-30T00:28:53;20.41;55.42
68867;SHT30;56451;44.804;20.476;2022-09-30T00:31:20;20.42;55.44
68867;SHT30;56451;44.804;20.476;2022-09-30T00:33:47;20.45;55.14
68867;SHT30;56451;44.804;20.476;2022-09-30T00:39:11;20.55;54.83
68867;SHT30;56451;44.804;20.476;2022-09-30T00:41:38;20.55;54.71
68867;SHT30;56451;44.804;20.476;2022-09-30T00:49:57;20.62;54.36
68867;SHT30;56451;44.804;20.476;2022-09-30T00:52:24;20.68;54.28
68867;SHT30;56451;44.804;20.476;2022-09-30T00:54:51;20.65;54.67
68867;SHT30;56451;44.804;20.476;2022-09-30T00:57:18;20.64;54.56
68867;SHT30;56451;44.804;20.476;2022-09-30T00:59:47;20.58;54.68
68867;SHT30;56451;44.804;20.476;2022-09-30T01:02:14;20.51;54.85
68867;SHT30;56451;44.804;20.476;2022-09-30T01:04:40;20.48;55.13
68867;SHT30;56451;44.804;20.476;2022-09-30T01:07:08;20.48;54.96
68867;SHT30;56451;44.804;20.476;2022-09-30T01:09:36;20.48;55.12
68867;SHT30;56451;44.804;20.476;2022-09-30T01:12:09;20.47;55.17
68867;SHT30;56451;44.804;20.476;2022-09-30T01:14:36;20.42;55.52
68867;SHT30;56451;44.804;20.476;2022-09-30T01:20:25;20.41;55.56
68867;SHT30;56451;44.804;20.476;2022-09-30T01:23:31;20.41;55.75
68867;SHT30;56451;44.804;20.476;2022-09-30T01:39:35;20.37;56.26
68867;SHT30;56451;44.804;20.476;2022-09-30T01:42:21;20.40;56.19
68867;SHT30;56451;44.804;20.476;2022-09-30T01:44:58;20.38;55.90
68867;SHT30;56451;44.804;20.476;2022-09-30T01:47:50;20.33;55.94
68867;SHT30;56451;44.804;20.476;2022-09-30T01:50:28;20.31;56.10
68867;SHT30;56451;44.804;20.476;2022-09-30T01:55:46;20.35;55.99
68867;SHT30;56451;44.804;20.476;2022-09-30T02:00:49;20.31;55.75
68867;SHT30;56451;44.804;20.476;2022-09-30T02:03:29;20.31;55.42
68867;SHT30;56451;44.804;20.476;2022-09-30T02:06:02;20.30;55.40
68867;SHT30;56451;44.804;20.476;2022-09-30T02:08:41;20.33;55.36
68867;SHT30;56451;44.804;20.476;2022-09-30T02:11:16;20.37;55.47
68867;SHT30;56451;44.804;20.476;2022-09-30T02:13:57;20.33;55.94
68867;SHT30;56451;44.804;20.476;2022-09-30T02:16:36;20.28;56.13
68867;SHT30;56451;44.804;20.476;2022-09-30T02:19:13;20.27;56.38
68867;SHT30;56451;44.804;20.476;2022-09-30T02:21:44;20.25;56.67
68867;SHT30;56451;44.804;20.476;2022-09-30T02:24:14;20.24;56.61
68867;SHT30;56451;44.804;20.476;2022-09-30T02:26:42;20.30;56.67
68867;SHT30;56451;44.804;20.476;2022-09-30T02:29:32;20.28;56.80
68867;SHT30;56451;44.804;20.476;2022-09-30T02:32:07;20.31;57.07
68867;SHT30;56451;44.804;20.476;2022-09-30T02:34:39;20.28;57.31
68867;SHT30;56451;44.804;20.476;2022-09-30T02:42:13;20.20;58.30
68867;SHT30;56451;44.804;20.476;2022-09-30T02:44:39;20.16;58.62
68867;SHT30;56451;44.804;20.476;2022-09-30T02:47:16;20.10;58.98
68867;SHT30;56451;44.804;20.476;2022-09-30T02:49:56;20.10;59.34
68867;SHT30;56451;44.804;20.476;2022-09-30T02:52:44;20.03;59.82
68867;SHT30;56451;44.804;20.476;2022-09-30T02:57:59;19.97;60.13
68867;SHT30;56451;44.804;20.476;2022-09-30T03:00:30;19.96;60.22
68867;SHT30;56451;44.804;20.476;2022-09-30T03:02:59;19.93;60.27
68867;SHT30;56451;44.804;20.476;2022-09-30T03:05:28;19.89;60.37
68867;SHT30;56451;44.804;20.476;2022-09-30T03:07:54;19.86;60.55
68867;SHT30;56451;44.804;20.476;2022-09-30T03:10:21;19.86;60.75
68867;SHT30;56451;44.804;20.476;2022-09-30T03:13:27;19.89;60.47
68867;SHT30;56451;44.804;20.476;2022-09-30T03:27:34;19.80;60.64
68867;SHT30;56451;44.804;20.476;2022-09-30T03:30:06;19.77;60.70
68867;SHT30;56451;44.804;20.476;2022-09-30T03:38:11;19.75;60.91
68867;SHT30;56451;44.804;20.476;2022-09-30T03:43:28;19.77;60.76
68867;SHT30;56451;44.804;20.476;2022-09-30T03:46:04;19.76;61.09
68867;SHT30;56451;44.804;20.476;2022-09-30T03:48:32;19.73;61.14
68867;SHT30;56451;44.804;20.476;2022-09-30T03:50:59;19.77;61.24
68867;SHT30;56451;44.804;20.476;2022-09-30T03:53:25;19.82;61.11
68867;SHT30;56451;44.804;20.476;2022-09-30T03:55:53;19.79;61.15
68867;SHT30;56451;44.804;20.476;2022-09-30T03:58:21;19.82;61.35
68867;SHT30;56451;44.804;20.476;2022-09-30T04:00:50;19.82;61.44
68867;SHT30;56451;44.804;20.476;2022-09-30T04:03:18;19.82;61.58
68867;SHT30;56451;44.804;20.476;2022-09-30T04:05:45;19.82;61.88
68867;SHT30;56451;44.804;20.476;2022-09-30T04:08:11;19.82;61.98
68867;SHT30;56451;44.804;20.476;2022-09-30T04:10:41;19.82;62.29
68867;SHT30;56451;44.804;20.476;2022-09-30T04:13:07;19.84;62.55
68867;SHT30;56451;44.804;20.476;2022-09-30T04:15:34;19.84;62.73
68867;SHT30;56451;44.804;20.476;2022-09-30T04:18:01;19.86;62.84
68867;SHT30;56451;44.804;20.476;2022-09-30T04:20:28;19.89;63.19
68867;SHT30;56451;44.804;20.476;2022-09-30T04:22:59;19.87;63.51
68867;SHT30;56451;44.804;20.476;2022-09-30T04:25:26;19.86;63.77
68867;SHT30;56451;44.804;20.476;2022-09-30T04:27:53;19.90;63.98
68867;SHT30;56451;44.804;20.476;2022-09-30T04:30:19;19.92;64.00
68867;SHT30;56451;44.804;20.476;2022-09-30T04:32:45;19.92;64.23
68867;SHT30;56451;44.804;20.476;2022-09-30T04:35:12;19.94;64.19
68867;SHT30;56451;44.804;20.476;2022-09-30T04:37:45;19.94;64.26
68867;SHT30;56451;44.804;20.476;2022-09-30T04:40:13;19.96;64.53
68867;SHT30;56451;44.804;20.476;2022-09-30T04:42:40;19.90;64.57
68867;SHT30;56451;44.804;20.476;2022-09-30T04:45:09;19.92;64.73
68867;SHT30;56451;44.804;20.476;2022-09-30T04:47:35;19.93;64.63
68867;SHT30;56451;44.804;20.476;2022-09-30T04:50:01;19.96;64.89
68867;SHT30;56451;44.804;20.476;2022-09-30T04:52:27;19.90;65.01
68867;SHT30;56451;44.804;20.476;2022-09-30T04:54:52;19.89;65.17
68867;SHT30;56451;44.804;20.476;2022-09-30T04:57:19;19.89;65.41
68867;SHT30;56451;44.804;20.476;2022-09-30T04:59:45;19.90;65.40
68867;SHT30;56451;44.804;20.476;2022-09-30T05:02:11;19.86;65.70
68867;SHT30;56451;44.804;20.476;2022-09-30T05:04:38;19.90;65.73
68867;SHT30;56451;44.804;20.476;2022-09-30T05:07:04;19.87;65.91
68867;SHT30;56451;44.804;20.476;2022-09-30T05:09:36;19.89;65.91
68867;SHT30;56451;44.804;20.476;2022-09-30T05:12:02;19.89;66.12
68867;SHT30;56451;44.804;20.476;2022-09-30T05:14:29;19.92;66.15
68867;SHT30;56451;44.804;20.476;2022-09-30T05:16:55;19.93;66.23
68867;SHT30;56451;44.804;20.476;2022-09-30T05:19:21;19.90;66.31
68867;SHT30;56451;44.804;20.476;2022-09-30T05:21:47;19.87;66.32
68867;SHT30;56451;44.804;20.476;2022-09-30T05:24:12;19.90;66.25
68867;SHT30;56451;44.804;20.476;2022-09-30T05:26:39;19.92;66.23
68867;SHT30;56451;44.804;20.476;2022-09-30T05:29:05;19.94;66.05
68867;SHT30;56451;44.804;20.476;2022-09-30T05:31:32;19.92;66.23
68867;SHT30;56451;44.804;20.476;2022-09-30T05:33:58;19.97;66.50
68867;SHT30;56451;44.804;20.476;2022-09-30T05:36:24;20.00;66.46
68867;SHT30;56451;44.804;20.476;2022-09-30T05:38:50;19.98;66.53
68867;SHT30;56451;44.804;20.476;2022-09-30T05:41:17;20.07;66.51
68867;SHT30;56451;44.804;20.476;2022-09-30T05:43:46;20.01;66.56
68867;SHT30;56451;44.804;20.476;2022-09-30T05:46:17;20.00;66.52
68867;SHT30;56451;44.804;20.476;2022-09-30T05:48:43;20.04;66.29
68867;SHT30;56451;44.804;20.476;2022-09-30T05:51:09;20.07;66.23
68867;SHT30;56451;44.804;20.476;2022-09-30T05:53:37;20.09;66.18
68867;SHT30;56451;44.804;20.476;2022-09-30T05:56:07;20.12;66.01
68867;SHT30;56451;44.804;20.476;2022-09-30T05:58:34;20.09;66.18
68867;SHT30;56451;44.804;20.476;2022-09-30T06:01:06;20.13;66.11
68867;SHT30;56451;44.804;20.476;2022-09-30T06:03:34;20.13;66.18
68867;SHT30;56451;44.804;20.476;2022-09-30T06:06:00;20.13;66.27
68867;SHT30;56451;44.804;20.476;2022-09-30T06:08:26;20.14;66.39
68867;SHT30;56451;44.804;20.476;2022-09-30T06:10:52;20.16;66.50
68867;SHT30;56451;44.804;20.476;2022-09-30T06:13:18;20.23;66.48
68867;SHT30;56451;44.804;20.476;2022-09-30T06:15:56;20.23;66.25
68867;SHT30;56451;44.804;20.476;2022-09-30T06:18:23;20.21;66.14
68867;SHT30;56451;44.804;20.476;2022-09-30T06:20:50;20.21;66.25
68867;SHT30;56451;44.804;20.476;2022-09-30T06:23:15;20.28;66.14
68867;SHT30;56451;44.804;20.476;2022-09-30T06:25:41;20.28;66.14
68867;SHT30;56451;44.804;20.476;2022-09-30T06:28:09;20.31;66.18
68867;SHT30;56451;44.804;20.476;2022-09-30T06:30:34;20.34;66.12
68867;SHT30;56451;44.804;20.476;2022-09-30T06:33:00;20.35;66.04
68867;SHT30;56451;44.804;20.476;2022-09-30T06:35:26;20.40;65.99
68867;SHT30;56451;44.804;20.476;2022-09-30T06:37:53;20.38;66.03
68867;SHT30;56451;44.804;20.476;2022-09-30T06:40:19;20.42;66.09
68867;SHT30;56451;44.804;20.476;2022-09-30T06:42:48;20.44;66.15
68867;SHT30;56451;44.804;20.476;2022-09-30T06:45:15;20.44;66.09
68867;SHT30;56451;44.804;20.476;2022-09-30T06:47:44;20.45;66.06
68867;SHT30;56451;44.804;20.476;2022-09-30T06:50:11;20.51;66.20
68867;SHT30;56451;44.804;20.476;2022-09-30T06:52:37;20.55;66.05
68867;SHT30;56451;44.804;20.476;2022-09-30T06:55:02;20.58;65.92
68867;SHT30;56451;44.804;20.476;2022-09-30T06:57:28;20.62;65.70
68867;SHT30;56451;44.804;20.476;2022-09-30T06:59:54;20.68;65.57
68867;SHT30;56451;44.804;20.476;2022-09-30T07:02:21;20.68;65.54
68867;SHT30;56451;44.804;20.476;2022-09-30T07:04:46;20.76;65.46
68867;SHT30;56451;44.804;20.476;2022-09-30T07:07:13;20.79;65.37
68867;SHT30;56451;44.804;20.476;2022-09-30T07:09:39;20.79;65.22
68867;SHT30;56451;44.804;20.476;2022-09-30T07:12:04;20.85;65.09
68867;SHT30;56451;44.804;20.476;2022-09-30T07:14:33;20.86;64.91
68867;SHT30;56451;44.804;20.476;2022-09-30T07:17:00;20.95;64.58
68867;SHT30;56451;44.804;20.476;2022-09-30T07:19:29;20.99;63.87
68867;SHT30;56451;44.804;20.476;2022-09-30T07:21:54;21.04;63.57
68867;SHT30;56451;44.804;20.476;2022-09-30T07:24:20;21.07;63.65
68867;SHT30;56451;44.804;20.476;2022-09-30T07:26:46;21.14;62.75
68867;SHT30;56451;44.804;20.476;2022-09-30T07:29:12;21.19;62.60
68867;SHT30;56451;44.804;20.476;2022-09-30T07:31:38;21.22;62.68
68867;SHT30;56451;44.804;20.476;2022-09-30T07:34:06;21.24;62.97
68867;SHT30;56451;44.804;20.476;2022-09-30T07:36:33;21.27;63.08
68867;SHT30;56451;44.804;20.476;2022-09-30T07:39:05;21.24;64.40
68867;SHT30;56451;44.804;20.476;2022-09-30T07:41:33;21.19;65.01
68867;SHT30;56451;44.804;20.476;2022-09-30T07:44:00;21.16;65.49
68867;SHT30;56451;44.804;20.476;2022-09-30T07:46:30;21.13;65.75
68867;SHT30;56451;44.804;20.476;2022-09-30T07:48:58;21.14;65.65
68867;SHT30;56451;44.804;20.476;2022-09-30T07:51:29;21.16;65.61
68867;SHT30;56451;44.804;20.476;2022-09-30T07:54:00;21.14;65.45
68867;SHT30;56451;44.804;20.476;2022-09-30T07:56:27;21.11;65.91
68867;SHT30;56451;44.804;20.476;2022-09-30T07:58:57;21.09;66.12
68867;SHT30;56451;44.804;20.476;2022-09-30T08:01:28;21.06;66.61
68867;SHT30;56451;44.804;20.476;2022-09-30T08:03:57;21.04;66.68
68867;SHT30;56451;44.804;20.476;2022-09-30T08:06:25;21.06;66.83
68867;SHT30;56451;44.804;20.476;2022-09-30T08:08:53;21.07;66.96
68867;SHT30;56451;44.804;20.476;2022-09-30T08:11:20;21.04;67.06
68867;SHT30;56451;44.804;20.476;2022-09-30T08:13:50;21.04;67.31
68867;SHT30;56451;44.804;20.476;2022-09-30T08:16:18;21.04;67.21
68867;SHT30;56451;44.804;20.476;2022-09-30T08:18:44;21.03;67.28
68867;SHT30;56451;44.804;20.476;2022-09-30T08:21:10;21.03;67.25
68867;SHT30;56451;44.804;20.476;2022-09-30T08:23:36;21.02;67.22
68867;SHT30;56451;44.804;20.476;2022-09-30T08:26:04;21.09;67.14
68867;SHT30;56451;44.804;20.476;2022-09-30T08:28:30;21.18;66.99
68867;SHT30;56451;44.804;20.476;2022-09-30T08:33:29;21.31;66.48
68867;SHT30;56451;44.804;20.476;2022-09-30T08:35:55;21.37;66.19
68867;SHT30;56451;44.804;20.476;2022-09-30T08:38:21;21.33;66.28
68867;SHT30;56451;44.804;20.476;2022-09-30T08:44:38;21.46;66.31
68867;SHT30;56451;44.804;20.476;2022-09-30T08:47:36;21.50;66.11
68867;SHT30;56451;44.804;20.476;2022-09-30T08:50:23;21.60;65.58
68867;SHT30;56451;44.804;20.476;2022-09-30T08:52:58;21.68;65.41
68867;SHT30;56451;44.804;20.476;2022-09-30T08:55:30;21.74;65.41
68867;SHT30;56451;44.804;20.476;2022-09-30T08:57:59;21.82;65.17
68867;SHT30;56451;44.804;20.476;2022-09-30T09:00:27;21.91;65.33
68867;SHT30;56451;44.804;20.476;2022-09-30T09:02:57;21.99;65.17
68867;SHT30;56451;44.804;20.476;2022-09-30T09:10:45;22.23;64.56
68867;SHT30;56451;44.804;20.476;2022-09-30T09:13:42;22.25;64.39
68867;SHT30;56451;44.804;20.476;2022-09-30T09:16:30;22.25;64.48
68867;SHT30;56451;44.804;20.476;2022-09-30T09:19:07;22.22;64.60
68867;SHT30;56451;44.804;20.476;2022-09-30T09:21:51;22.25;64.46
68867;SHT30;56451;44.804;20.476;2022-09-30T09:24:26;22.28;64.45
68867;SHT30;56451;44.804;20.476;2022-09-30T09:26:54;22.35;64.51
68867;SHT30;56451;44.804;20.476;2022-09-30T09:32:01;22.49;63.91
68867;SHT30;56451;44.804;20.476;2022-09-30T09:34:28;22.54;63.57
68867;SHT30;56451;44.804;20.476;2022-09-30T09:42:54;22.81;62.83
68867;SHT30;56451;44.804;20.476;2022-09-30T09:45:35;22.87;62.39
68867;SHT30;56451;44.804;20.476;2022-09-30T09:48:08;22.95;61.47
68867;SHT30;56451;44.804;20.476;2022-09-30T09:50:47;23.04;61.03
68867;SHT30;56451;44.804;20.476;2022-09-30T09:56:21;23.22;60.30
68867;SHT30;56451;44.804;20.476;2022-09-30T10:01:30;23.41;59.94
68867;SHT30;56451;44.804;20.476;2022-09-30T10:04:11;23.46;59.63
68867;SHT30;56451;44.804;20.476;2022-09-30T10:07:12;23.55;59.74
68867;SHT30;56451;44.804;20.476;2022-09-30T10:09:41;23.62;60.24
68867;SHT30;56451;44.804;20.476;2022-09-30T10:14:36;23.72;59.79
68867;SHT30;56451;44.804;20.476;2022-09-30T10:19:51;23.87;59.50
68867;SHT30;56451;44.804;20.476;2022-09-30T10:22:19;23.94;58.51
68867;SHT30;56451;44.804;20.476;2022-09-30T10:24:49;24.06;57.57
68867;SHT30;56451;44.804;20.476;2022-09-30T10:27:29;24.13;55.94
68867;SHT30;56451;44.804;20.476;2022-09-30T10:29:57;24.17;54.52
68867;SHT30;56451;44.804;20.476;2022-09-30T10:32:24;24.21;54.85
68867;SHT30;56451;44.804;20.476;2022-09-30T10:35:19;24.31;54.86
68867;SHT30;56451;44.804;20.476;2022-09-30T10:37:51;24.38;54.42
68867;SHT30;56451;44.804;20.476;2022-09-30T10:40:18;24.44;54.57
68867;SHT30;56451;44.804;20.476;2022-09-30T10:42:47;24.52;54.44
68867;SHT30;56451;44.804;20.476;2022-09-30T10:45:26;24.57;54.21
68867;SHT30;56451;44.804;20.476;2022-09-30T10:47:54;24.62;53.64
68867;SHT30;56451;44.804;20.476;2022-09-30T10:50:23;24.65;53.32
68867;SHT30;56451;44.804;20.476;2022-09-30T10:52:55;24.72;52.10
68867;SHT30;56451;44.804;20.476;2022-09-30T10:55:27;24.78;51.87
68867;SHT30;56451;44.804;20.476;2022-09-30T10:58:00;24.86;51.91
68867;SHT30;56451;44.804;20.476;2022-09-30T11:00:29;24.93;51.41
68867;SHT30;56451;44.804;20.476;2022-09-30T11:03:04;24.97;50.57
68867;SHT30;56451;44.804;20.476;2022-09-30T11:05:41;25.05;48.54
68867;SHT30;56451;44.804;20.476;2022-09-30T11:08:21;25.10;49.44
68867;SHT30;56451;44.804;20.476;2022-09-30T11:11:05;25.20;48.87
68867;SHT30;56451;44.804;20.476;2022-09-30T11:13:46;25.28;48.14
68867;SHT30;56451;44.804;20.476;2022-09-30T11:16:32;25.31;48.28
68867;SHT30;56451;44.804;20.476;2022-09-30T11:22:02;25.47;46.70
68867;SHT30;56451;44.804;20.476;2022-09-30T11:24:41;25.48;47.29
68867;SHT30;56451;44.804;20.476;2022-09-30T11:30:19;25.63;45.32
68867;SHT30;56451;44.804;20.476;2022-09-30T11:38:08;25.70;44.87
68867;SHT30;56451;44.804;20.476;2022-09-30T11:41:18;25.77;45.27
68867;SHT30;56451;44.804;20.476;2022-09-30T11:49:13;25.81;45.77
68867;SHT30;56451;44.804;20.476;2022-09-30T11:51:50;25.82;44.35
68867;SHT30;56451;44.804;20.476;2022-09-30T11:59:35;25.96;43.39
68867;SHT30;56451;44.804;20.476;2022-09-30T12:02:03;26.02;44.04
68867;SHT30;56451;44.804;20.476;2022-09-30T12:04:41;26.12;43.88
68867;SHT30;56451;44.804;20.476;2022-09-30T12:07:19;26.15;44.16
68867;SHT30;56451;44.804;20.476;2022-09-30T12:09:52;26.16;43.64
68867;SHT30;56451;44.804;20.476;2022-09-30T12:12:21;26.22;42.45
68867;SHT30;56451;44.804;20.476;2022-09-30T12:20:16;26.37;42.41
68867;SHT30;56451;44.804;20.476;2022-09-30T12:22:44;26.41;42.52
68867;SHT30;56451;44.804;20.476;2022-09-30T12:25:39;26.41;42.11
68867;SHT30;56451;44.804;20.476;2022-09-30T12:31:24;26.43;43.41
68867;SHT30;56451;44.804;20.476;2022-09-30T12:47:47;26.56;41.94
68867;SHT30;56451;44.804;20.476;2022-09-30T12:50:22;26.60;41.65
68867;SHT30;56451;44.804;20.476;2022-09-30T12:52:49;26.64;41.37
68867;SHT30;56451;44.804;20.476;2022-09-30T12:55:30;26.70;41.22
68867;SHT30;56451;44.804;20.476;2022-09-30T12:58:02;26.71;41.38
68867;SHT30;56451;44.804;20.476;2022-09-30T13:00:32;26.78;41.14
68867;SHT30;56451;44.804;20.476;2022-09-30T13:03:13;26.81;41.60
68867;SHT30;56451;44.804;20.476;2022-09-30T13:08:22;26.87;41.46
68867;SHT30;56451;44.804;20.476;2022-09-30T13:10:58;26.88;41.29
68867;SHT30;56451;44.804;20.476;2022-09-30T13:13:28;26.88;41.85
68867;SHT30;56451;44.804;20.476;2022-09-30T13:15:58;26.87;42.60
68867;SHT30;56451;44.804;20.476;2022-09-30T13:26:01;26.95;42.30
68867;SHT30;56451;44.804;20.476;2022-09-30T13:28:29;26.92;42.44
68867;SHT30;56451;44.804;20.476;2022-09-30T13:32:28;26.90;43.45
68867;SHT30;56451;44.804;20.476;2022-09-30T13:34:28;26.86;42.48
68867;SHT30;56451;44.804;20.476;2022-09-30T13:37:04;26.90;42.30
68867;SHT30;56451;44.804;20.476;2022-09-30T13:42:27;26.90;41.43
68867;SHT30;56451;44.804;20.476;2022-09-30T13:45:06;26.91;41.53
68867;SHT30;56451;44.804;20.476;2022-09-30T13:47:42;26.92;41.15
68867;SHT30;56451;44.804;20.476;2022-09-30T13:50:18;26.92;42.38
68867;SHT30;56451;44.804;20.476;2022-09-30T13:52:50;26.91;41.80
68867;SHT30;56451;44.804;20.476;2022-09-30T13:55:39;26.92;42.41
68867;SHT30;56451;44.804;20.476;2022-09-30T14:01:26;26.94;42.55
68867;SHT30;56451;44.804;20.476;2022-09-30T14:15:21;26.91;42.47
68867;SHT30;56451;44.804;20.476;2022-09-30T14:23:26;26.88;41.90
68867;SHT30;56451;44.804;20.476;2022-09-30T14:26:03;26.84;42.17
68867;SHT30;56451;44.804;20.476;2022-09-30T14:28:45;26.81;41.97
68867;SHT30;56451;44.804;20.476;2022-09-30T14:31:13;26.77;41.71
68867;SHT30;56451;44.804;20.476;2022-09-30T14:33:41;26.76;41.55
68867;SHT30;56451;44.804;20.476;2022-09-30T14:36:16;26.70;41.84
68867;SHT30;56451;44.804;20.476;2022-09-30T14:38:47;26.67;42.76
68867;SHT30;56451;44.804;20.476;2022-09-30T14:41:19;26.61;44.07
68867;SHT30;56451;44.804;20.476;2022-09-30T14:43:48;26.57;45.25
68867;SHT30;56451;44.804;20.476;2022-09-30T14:46:37;26.50;45.70
68867;SHT30;56451;44.804;20.476;2022-09-30T14:49:13;26.43;46.19
68867;SHT30;56451;44.804;20.476;2022-09-30T14:51:43;26.40;46.62
68867;SHT30;56451;44.804;20.476;2022-09-30T14:54:15;26.39;46.77
68867;SHT30;56451;44.804;20.476;2022-09-30T14:56:42;26.36;47.14
68867;SHT30;56451;44.804;20.476;2022-09-30T14:59:20;26.32;47.12
68867;SHT30;56451;44.804;20.476;2022-09-30T15:01:49;26.32;47.01
68867;SHT30;56451;44.804;20.476;2022-09-30T15:04:24;26.28;47.31
68867;SHT30;56451;44.804;20.476;2022-09-30T15:06:51;26.22;47.40
68867;SHT30;56451;44.804;20.476;2022-09-30T15:09:39;26.22;47.49
68867;SHT30;56451;44.804;20.476;2022-09-30T15:14:49;26.18;47.82
68867;SHT30;56451;44.804;20.476;2022-09-30T15:17:17;26.13;48.06
68867;SHT30;56451;44.804;20.476;2022-09-30T15:19:44;26.12;48.23
68867;SHT30;56451;44.804;20.476;2022-09-30T15:22:11;26.11;48.38
68867;SHT30;56451;44.804;20.476;2022-09-30T15:24:38;26.09;48.39
68867;SHT30;56451;44.804;20.476;2022-09-30T15:27:05;26.03;48.94
68867;SHT30;56451;44.804;20.476;2022-09-30T15:29:35;25.96;48.95
68867;SHT30;56451;44.804;20.476;2022-09-30T15:32:09;25.93;49.22
68867;SHT30;56451;44.804;20.476;2022-09-30T15:34:37;25.93;49.53
68867;SHT30;56451;44.804;20.476;2022-09-30T15:37:04;25.89;49.86
68867;SHT30;56451;44.804;20.476;2022-09-30T15:39:45;25.86;49.95
68867;SHT30;56451;44.804;20.476;2022-09-30T15:42:42;25.85;50.14
68867;SHT30;56451;44.804;20.476;2022-09-30T15:50:55;25.71;50.48
68867;SHT30;56451;44.804;20.476;2022-09-30T15:53:52;25.65;50.54
68867;SHT30;56451;44.804;20.476;2022-09-30T15:56:44;25.58;50.93
68867;SHT30;56451;44.804;20.476;2022-09-30T15:59:12;25.54;51.24
68867;SHT30;56451;44.804;20.476;2022-09-30T16:06:48;25.40;51.80
68867;SHT30;56451;44.804;20.476;2022-09-30T16:11:43;25.34;52.20
68867;SHT30;56451;44.804;20.476;2022-09-30T16:14:21;25.30;52.12
68867;SHT30;56451;44.804;20.476;2022-09-30T16:16:51;25.26;52.29
68867;SHT30;56451;44.804;20.476;2022-09-30T16:19:18;25.27;52.24
68867;SHT30;56451;44.804;20.476;2022-09-30T16:21:49;25.24;52.40
68867;SHT30;56451;44.804;20.476;2022-09-30T16:26:52;25.20;52.29
68867;SHT30;56451;44.804;20.476;2022-09-30T16:29:19;25.19;52.27
68867;SHT30;56451;44.804;20.476;2022-09-30T16:31:48;25.16;52.08
68867;SHT30;56451;44.804;20.476;2022-09-30T16:34:21;25.15;52.05
68867;SHT30;56451;44.804;20.476;2022-09-30T16:36:48;25.12;51.97
68867;SHT30;56451;44.804;20.476;2022-09-30T16:39:15;25.10;52.13
68867;SHT30;56451;44.804;20.476;2022-09-30T16:41:42;25.07;52.04
68867;SHT30;56451;44.804;20.476;2022-09-30T16:44:08;25.00;52.23
68867;SHT30;56451;44.804;20.476;2022-09-30T16:46:35;24.99;52.16
68867;SHT30;56451;44.804;20.476;2022-09-30T16:49:19;24.97;52.19
68867;SHT30;56451;44.804;20.476;2022-09-30T16:51:45;24.97;52.28
68867;SHT30;56451;44.804;20.476;2022-09-30T16:54:11;24.92;52.26
68867;SHT30;56451;44.804;20.476;2022-09-30T16:56:38;24.90;52.18
68867;SHT30;56451;44.804;20.476;2022-09-30T16:59:14;24.90;52.12
68867;SHT30;56451;44.804;20.476;2022-09-30T17:01:42;24.86;52.28
68867;SHT30;56451;44.804;20.476;2022-09-30T17:04:08;24.85;52.54
68867;SHT30;56451;44.804;20.476;2022-09-30T17:06:36;24.79;52.59
68867;SHT30;56451;44.804;20.476;2022-09-30T17:09:03;24.79;52.46
68867;SHT30;56451;44.804;20.476;2022-09-30T17:11:31;24.82;52.37
68867;SHT30;56451;44.804;20.476;2022-09-30T17:13:59;24.75;52.28
68867;SHT30;56451;44.804;20.476;2022-09-30T17:16:26;24.72;52.56
68867;SHT30;56451;44.804;20.476;2022-09-30T17:18:52;24.71;52.72
68867;SHT30;56451;44.804;20.476;2022-09-30T17:21:20;24.71;52.52
68867;SHT30;56451;44.804;20.476;2022-09-30T17:23:46;24.71;52.60
68867;SHT30;56451;44.804;20.476;2022-09-30T17:26:13;24.72;52.55
68867;SHT30;56451;44.804;20.476;2022-09-30T17:28:39;24.68;52.68
68867;SHT30;56451;44.804;20.476;2022-09-30T17:31:07;24.68;53.02
68867;SHT30;56451;44.804;20.476;2022-09-30T17:33:37;24.64;53.07
68867;SHT30;56451;44.804;20.476;2022-09-30T17:36:05;24.65;53.13
68867;SHT30;56451;44.804;20.476;2022-09-30T17:38:33;24.65;53.33
68867;SHT30;56451;44.804;20.476;2022-09-30T17:40:59;24.61;53.54
68867;SHT30;56451;44.804;20.476;2022-09-30T17:43:44;24.62;53.46
68867;SHT30;56451;44.804;20.476;2022-09-30T17:46:12;24.65;53.70
68867;SHT30;56451;44.804;20.476;2022-09-30T17:48:40;24.59;54.05
68867;SHT30;56451;44.804;20.476;2022-09-30T17:51:08;24.54;54.10
68867;SHT30;56451;44.804;20.476;2022-09-30T17:53:34;24.48;54.24
68867;SHT30;56451;44.804;20.476;2022-09-30T17:56:05;24.45;54.37
68867;SHT30;56451;44.804;20.476;2022-09-30T17:58:35;24.42;54.53
68867;SHT30;56451;44.804;20.476;2022-09-30T18:01:08;24.38;54.65
68867;SHT30;56451;44.804;20.476;2022-09-30T18:03:35;24.37;54.72
68867;SHT30;56451;44.804;20.476;2022-09-30T18:06:02;24.34;54.55
68867;SHT30;56451;44.804;20.476;2022-09-30T18:08:28;24.32;54.27
68867;SHT30;56451;44.804;20.476;2022-09-30T18:10:54;24.27;54.28
68867;SHT30;56451;44.804;20.476;2022-09-30T18:13:25;24.20;54.25
68867;SHT30;56451;44.804;20.476;2022-09-30T18:15:51;24.17;54.09
68867;SHT30;56451;44.804;20.476;2022-09-30T18:18:17;24.17;53.97
68867;SHT30;56451;44.804;20.476;2022-09-30T18:20:48;24.11;54.05
68867;SHT30;56451;44.804;20.476;2022-09-30T18:23:16;24.11;53.94
68867;SHT30;56451;44.804;20.476;2022-09-30T18:25:44;24.08;53.83
68867;SHT30;56451;44.804;20.476;2022-09-30T18:28:11;24.06;53.78
68867;SHT30;56451;44.804;20.476;2022-09-30T18:30:39;24.03;53.97
68867;SHT30;56451;44.804;20.476;2022-09-30T18:33:05;24.00;54.08
68867;SHT30;56451;44.804;20.476;2022-09-30T18:35:34;23.94;54.13
68867;SHT30;56451;44.804;20.476;2022-09-30T18:38:00;23.90;54.15
68867;SHT30;56451;44.804;20.476;2022-09-30T18:40:27;23.86;54.34
68867;SHT30;56451;44.804;20.476;2022-09-30T18:42:55;23.84;54.44
68867;SHT30;56451;44.804;20.476;2022-09-30T18:45:33;23.80;54.49